createdAt,value
2023-03-06T00:01:08.634Z,64.73
2023-03-06T00:03:36.616Z,64.92
2023-03-06T00:06:04.276Z,64.00
2023-03-06T00:08:31.912Z,64.18
2023-03-06T00:11:00.188Z,64.42
2023-03-06T00:13:27.909Z,64.12
2023-03-06T00:15:59.086Z,64.55
2023-03-06T00:18:27.134Z,64.19
2023-03-06T00:20:54.904Z,64.62
2023-03-06T00:23:22.865Z,64.52
2023-03-06T00:25:50.934Z,64.49
2023-03-06T00:28:18.482Z,64.28
2023-03-06T00:30:46.449Z,64.12
2023-03-06T00:33:14.381Z,64.73
2023-03-06T00:35:42.342Z,64.39
2023-03-06T00:38:14.270Z,64.31
2023-03-06T00:40:42.248Z,63.96
2023-03-06T00:43:10.083Z,64.05
2023-03-06T00:45:41.734Z,63.58
2023-03-06T00:48:10.201Z,63.92
2023-03-06T00:50:37.829Z,64.40
2023-03-06T00:53:05.429Z,65.33
2023-03-06T00:55:33.622Z,65.24
2023-03-06T00:58:01.598Z,64.70
2023-03-06T01:00:29.846Z,64.75
2023-03-06T01:02:57.873Z,65.11
2023-03-06T01:05:25.683Z,64.69
2023-03-06T01:07:53.837Z,63.72
2023-03-06T01:10:21.845Z,63.76
2023-03-06T01:12:49.579Z,62.74
2023-03-06T01:15:19.073Z,63.19
2023-03-06T01:17:47.602Z,62.82
2023-03-06T01:20:17.083Z,62.48
2023-03-06T01:22:44.922Z,62.40
2023-03-06T01:25:12.986Z,62.76
2023-03-06T01:27:40.617Z,62.57
2023-03-06T01:30:12.014Z,62.97
2023-03-06T01:32:40.051Z,63.45
2023-03-06T01:35:08.421Z,63.96
2023-03-06T01:37:37.090Z,64.12
2023-03-06T01:40:05.493Z,64.36
2023-03-06T01:42:33.343Z,64.13
2023-03-06T01:45:06.519Z,64.46
2023-03-06T01:47:35.512Z,64.78
2023-03-06T01:50:04.815Z,63.95
2023-03-06T01:52:44.465Z,63.88
2023-03-06T01:55:16.674Z,63.58
2023-03-06T01:57:45.642Z,63.71
2023-03-06T02:00:16.914Z,63.79
2023-03-06T02:02:51.644Z,64.54
2023-03-06T02:05:19.897Z,64.21
2023-03-06T02:07:50.337Z,64.24
2023-03-06T02:10:20.618Z,65.90
2023-03-06T02:12:49.518Z,66.25
2023-03-06T02:15:19.808Z,65.35
2023-03-06T02:17:49.103Z,65.15
2023-03-06T02:20:29.320Z,64.89
2023-03-06T02:23:01.434Z,65.20
2023-03-06T02:25:41.276Z,64.74
2023-03-06T02:28:12.683Z,64.83
2023-03-06T02:30:41.512Z,65.01
2023-03-06T02:33:21.106Z,64.88
2023-03-06T02:35:59.731Z,64.25
2023-03-06T02:38:30.073Z,64.81
2023-03-06T02:40:57.855Z,65.93
2023-03-06T02:43:29.926Z,65.90
2023-03-06T02:45:57.866Z,65.03
2023-03-06T02:48:25.419Z,65.20
2023-03-06T02:50:53.188Z,65.25
2023-03-06T02:53:21.228Z,64.79
2023-03-06T02:55:49.990Z,64.83
2023-03-06T02:58:17.921Z,64.57
2023-03-06T03:00:47.524Z,65.08
2023-03-06T03:03:15.430Z,65.72
2023-03-06T03:05:43.354Z,64.95
2023-03-06T03:08:11.890Z,64.86
2023-03-06T03:10:39.685Z,64.42
2023-03-06T03:13:07.641Z,64.70
2023-03-06T03:15:36.061Z,64.56
2023-03-06T03:18:04.131Z,64.37
2023-03-06T03:20:32.232Z,64.62
2023-03-06T03:23:00.416Z,64.58
2023-03-06T03:25:28.212Z,65.04
2023-03-06T03:27:56.322Z,64.80
2023-03-06T03:30:24.265Z,65.04
2023-03-06T03:32:51.971Z,65.24
2023-03-06T03:35:20.335Z,64.99
2023-03-06T03:37:48.368Z,65.71
2023-03-06T03:40:16.482Z,65.55
2023-03-06T03:42:44.275Z,65.40
2023-03-06T03:45:13.212Z,64.97
2023-03-06T03:47:41.485Z,64.86
2023-03-06T03:50:10.280Z,65.66
2023-03-06T03:52:38.398Z,65.59
2023-03-06T03:55:06.813Z,65.14
2023-03-06T03:57:34.641Z,65.08
2023-03-06T04:00:02.957Z,64.47
2023-03-06T04:02:41.771Z,64.13
2023-03-06T04:05:11.819Z,64.00
2023-03-06T04:07:39.518Z,63.88
2023-03-06T04:10:12.181Z,63.00
2023-03-06T04:12:40.729Z,63.19
2023-03-06T04:15:10.784Z,63.09
2023-03-06T04:17:38.835Z,63.18
2023-03-06T04:20:07.776Z,63.13
2023-03-06T04:22:35.665Z,63.44
2023-03-06T04:25:03.739Z,63.17
2023-03-06T04:27:31.734Z,63.04
2023-03-06T04:29:59.687Z,63.14
2023-03-06T04:32:27.533Z,62.89
2023-03-06T04:34:55.704Z,62.57
2023-03-06T04:37:25.765Z,63.51
2023-03-06T04:39:54.166Z,63.58
2023-03-06T04:42:22.025Z,62.98
2023-03-06T04:44:49.618Z,62.33
2023-03-06T04:47:19.138Z,62.10
2023-03-06T04:49:47.539Z,61.95
2023-03-06T04:52:15.276Z,61.94
2023-03-06T04:54:42.930Z,61.93
2023-03-06T04:57:10.832Z,61.94
2023-03-06T04:59:39.301Z,61.94
2023-03-06T05:02:07.416Z,61.92
2023-03-06T05:04:35.556Z,62.40
2023-03-06T05:07:03.619Z,61.85
2023-03-06T05:09:31.314Z,62.41
2023-03-06T05:11:59.164Z,62.27
2023-03-06T05:14:29.624Z,62.14
2023-03-06T05:16:57.264Z,63.26
2023-03-06T05:19:25.247Z,63.73
2023-03-06T05:21:52.848Z,63.36
2023-03-06T05:24:20.523Z,63.68
2023-03-06T05:26:48.579Z,63.73
2023-03-06T05:29:16.760Z,64.42
2023-03-06T05:31:44.714Z,66.02
2023-03-06T05:34:16.412Z,66.33
2023-03-06T05:36:44.380Z,65.63
2023-03-06T05:39:12.714Z,65.93
2023-03-06T05:41:40.980Z,65.36
2023-03-06T05:44:08.608Z,65.26
2023-03-06T05:46:36.652Z,65.33
2023-03-06T05:49:04.436Z,65.26
2023-03-06T05:51:32.743Z,65.17
2023-03-06T05:54:00.817Z,65.74
2023-03-06T05:56:28.437Z,65.75
2023-03-06T05:58:56.148Z,65.66
2023-03-06T06:01:24.039Z,65.95
2023-03-06T06:03:52.078Z,65.95
2023-03-06T06:06:19.782Z,66.29
2023-03-06T06:08:47.584Z,67.50
2023-03-06T06:11:15.833Z,67.28
2023-03-06T06:13:43.480Z,67.06
2023-03-06T06:16:13.105Z,67.06
2023-03-06T06:18:41.619Z,67.10
2023-03-06T06:21:11.220Z,66.94
2023-03-06T06:23:38.965Z,66.68
2023-03-06T06:26:08.536Z,67.91
2023-03-06T06:28:36.618Z,67.92
2023-03-06T06:31:11.727Z,67.38
2023-03-06T06:33:40.781Z,67.75
2023-03-06T06:36:16.793Z,67.29
2023-03-06T06:38:44.769Z,67.57
2023-03-06T06:41:38.849Z,67.48
2023-03-06T06:44:00.595Z,67.20
2023-03-06T06:47:14.372Z,67.40
2023-03-06T06:49:17.558Z,66.92
2023-03-06T06:51:45.339Z,66.04
2023-03-06T06:54:13.099Z,65.56
2023-03-06T06:56:40.956Z,65.12
2023-03-06T06:59:16.399Z,65.75
2023-03-06T07:01:45.189Z,64.84
2023-03-06T07:04:13.871Z,65.41
2023-03-06T07:06:42.241Z,65.95
2023-03-06T07:09:10.336Z,66.74
2023-03-06T07:11:39.150Z,65.92
2023-03-06T07:14:06.875Z,65.53
2023-03-06T07:16:34.905Z,65.41
2023-03-06T07:19:03.061Z,63.72
2023-03-06T07:21:30.950Z,63.89
2023-03-06T07:24:00.616Z,63.23
2023-03-06T07:26:28.669Z,64.47
2023-03-06T07:28:56.557Z,64.90
2023-03-06T07:31:26.287Z,64.54
2023-03-06T07:33:54.779Z,64.84
2023-03-06T07:36:23.621Z,64.62
2023-03-06T07:38:51.500Z,63.87
2023-03-06T07:41:21.962Z,63.47
2023-03-06T07:43:50.411Z,63.17
2023-03-06T07:46:18.512Z,63.22
2023-03-06T07:48:46.195Z,62.36
2023-03-06T07:51:17.041Z,62.63
2023-03-06T07:53:45.457Z,62.53
2023-03-06T07:56:13.470Z,63.96
2023-03-06T07:58:43.434Z,63.56
2023-03-06T08:01:14.091Z,63.75
2023-03-06T08:03:42.652Z,63.33
2023-03-06T08:06:11.644Z,61.10
2023-03-06T08:08:41.380Z,61.51
2023-03-06T08:11:10.725Z,62.05
2023-03-06T08:13:39.266Z,61.15
2023-03-06T08:16:07.848Z,61.72
2023-03-06T08:18:36.315Z,60.70
2023-03-06T08:21:12.482Z,59.99
2023-03-06T08:23:40.796Z,60.47
2023-03-06T08:26:13.571Z,60.00
2023-03-06T08:28:41.602Z,60.03
2023-03-06T08:31:20.864Z,60.09
2023-03-06T08:33:48.935Z,60.99
2023-03-06T08:36:16.770Z,60.56
2023-03-06T08:38:44.637Z,60.81
2023-03-06T08:41:13.102Z,59.55
2023-03-06T08:43:40.800Z,61.05
2023-03-06T08:46:09.975Z,59.57
2023-03-06T08:48:38.493Z,58.32
2023-03-06T08:51:06.225Z,59.16
2023-03-06T08:53:43.015Z,59.66
2023-03-06T08:56:16.815Z,58.75
2023-03-06T08:58:44.901Z,57.26
2023-03-06T09:01:18.979Z,59.29
2023-03-06T09:03:46.767Z,58.22
2023-03-06T09:06:15.531Z,58.20
2023-03-06T09:08:43.280Z,58.31
2023-03-06T09:11:12.631Z,58.31
2023-03-06T09:13:41.812Z,59.44
2023-03-06T09:16:10.342Z,58.46
2023-03-06T09:18:38.173Z,56.19
2023-03-06T09:21:06.861Z,57.09
2023-03-06T09:23:35.740Z,54.79
2023-03-06T09:26:04.355Z,55.29
2023-03-06T09:28:35.799Z,53.09
2023-03-06T09:31:08.457Z,52.53
2023-03-06T09:33:36.577Z,52.72
2023-03-06T09:36:05.146Z,53.91
2023-03-06T09:38:33.305Z,53.19
2023-03-06T09:41:19.466Z,53.87
2023-03-06T09:43:50.419Z,52.92
2023-03-06T09:46:36.620Z,51.95
2023-03-06T09:49:23.282Z,52.15
2023-03-06T09:52:18.867Z,51.68
2023-03-06T09:54:50.550Z,50.94
2023-03-06T09:57:23.874Z,51.37
2023-03-06T09:59:57.198Z,50.48
2023-03-06T10:02:41.597Z,48.87
2023-03-06T10:05:18.054Z,49.24
2023-03-06T10:07:51.114Z,49.05
2023-03-06T10:10:24.534Z,49.43
2023-03-06T10:13:29.434Z,50.64
2023-03-06T10:16:10.306Z,49.99
2023-03-06T10:18:38.720Z,50.90
2023-03-06T10:21:20.653Z,50.15
2023-03-06T10:23:58.706Z,51.25
2023-03-06T10:26:54.123Z,49.86
2023-03-06T10:30:02.277Z,50.09
2023-03-06T10:32:48.680Z,49.42
2023-03-06T10:35:22.822Z,48.87
2023-03-06T10:37:50.842Z,48.67
2023-03-06T10:40:21.388Z,48.55
2023-03-06T10:42:56.075Z,49.60
2023-03-06T10:45:35.198Z,49.59
2023-03-06T10:48:11.810Z,49.07
2023-03-06T10:50:39.754Z,48.87
2023-03-06T10:53:26.075Z,48.65
2023-03-06T10:55:56.609Z,48.06
2023-03-06T10:58:27.097Z,47.74
2023-03-06T11:01:21.777Z,48.91
2023-03-06T11:03:49.528Z,49.03
2023-03-06T11:06:34.385Z,50.14
2023-03-06T11:09:24.251Z,49.81
2023-03-06T11:11:52.755Z,49.84
2023-03-06T11:14:21.649Z,48.64
2023-03-06T11:16:51.055Z,48.40
2023-03-06T11:19:24.920Z,47.99
2023-03-06T11:22:03.181Z,48.50
2023-03-06T11:24:36.624Z,48.42
2023-03-06T11:27:29.420Z,48.27
2023-03-06T11:29:59.995Z,49.32
2023-03-06T11:32:29.757Z,48.36
2023-03-06T11:35:01.941Z,49.08
2023-03-06T11:37:32.610Z,47.98
2023-03-06T11:40:06.781Z,47.89
2023-03-06T11:42:41.989Z,48.45
2023-03-06T11:45:31.062Z,47.49
2023-03-06T11:48:12.619Z,47.15
2023-03-06T11:50:46.016Z,47.76
2023-03-06T11:53:19.271Z,47.53
2023-03-06T11:56:05.816Z,46.32
2023-03-06T11:58:39.721Z,47.44
2023-03-06T12:01:13.128Z,47.07
2023-03-06T12:03:50.423Z,46.91
2023-03-06T12:06:35.648Z,47.16
2023-03-06T12:09:14.148Z,46.78
2023-03-06T12:11:51.184Z,47.01
2023-03-06T12:14:37.854Z,47.40
2023-03-06T12:17:30.488Z,47.48
2023-03-06T12:20:19.636Z,47.62
2023-03-06T12:22:57.975Z,48.39
2023-03-06T12:25:36.612Z,48.72
2023-03-06T12:28:16.993Z,50.52
2023-03-06T12:31:03.748Z,50.01
2023-03-06T12:33:37.116Z,50.08
2023-03-06T12:36:38.531Z,50.27
2023-03-06T12:39:15.175Z,49.31
2023-03-06T12:41:46.357Z,49.12
2023-03-06T12:44:32.610Z,49.53
2023-03-06T12:47:12.188Z,49.41
2023-03-06T12:49:46.054Z,50.14
2023-03-06T12:52:29.986Z,50.56
2023-03-06T12:55:04.961Z,50.34
2023-03-06T12:57:33.217Z,50.95
2023-03-06T13:00:01.220Z,50.24
2023-03-06T13:02:31.733Z,50.24
2023-03-06T13:04:59.780Z,50.20
2023-03-06T13:07:27.383Z,49.76
2023-03-06T13:10:01.002Z,50.19
2023-03-06T13:12:55.189Z,49.99
2023-03-06T13:15:39.869Z,50.24
2023-03-06T13:18:23.055Z,50.69
2023-03-06T13:20:55.201Z,50.58
2023-03-06T13:23:29.636Z,50.44
2023-03-06T13:25:58.300Z,51.04
2023-03-06T13:28:47.764Z,51.39
2023-03-06T13:31:28.301Z,50.73
2023-03-06T13:34:31.242Z,51.25
2023-03-06T13:37:13.827Z,51.49
2023-03-06T13:39:56.928Z,50.80
2023-03-06T13:42:38.048Z,50.20
2023-03-06T13:45:13.956Z,50.38
2023-03-06T13:50:46.310Z,50.27
2023-03-06T13:53:38.683Z,50.64
2023-03-06T13:56:26.182Z,50.24
2023-03-06T13:59:15.532Z,50.63
2023-03-06T14:02:05.058Z,50.08
2023-03-06T14:04:57.919Z,50.31
2023-03-06T14:07:43.507Z,51.74
2023-03-06T14:10:14.312Z,51.92
2023-03-06T14:12:50.931Z,50.56
2023-03-06T14:15:20.298Z,51.18
2023-03-06T14:17:53.019Z,51.75
2023-03-06T14:20:33.604Z,51.69
2023-03-06T14:23:21.690Z,50.23
2023-03-06T14:25:58.329Z,51.24
2023-03-06T14:28:28.326Z,50.77
2023-03-06T14:30:57.988Z,50.00
2023-03-06T14:33:58.544Z,50.62
2023-03-06T14:36:44.147Z,51.07
2023-03-06T14:39:22.504Z,50.93
2023-03-06T14:42:26.533Z,49.17
2023-03-06T14:45:05.948Z,50.39
2023-03-06T14:47:36.465Z,50.45
2023-03-06T14:50:21.244Z,51.03
2023-03-06T14:53:16.541Z,51.69
2023-03-06T14:55:56.236Z,51.37
2023-03-06T14:58:39.454Z,51.86
2023-03-06T15:01:09.662Z,52.75
2023-03-06T15:03:50.455Z,52.62
2023-03-06T15:06:21.909Z,53.14
2023-03-06T15:09:00.919Z,52.64
2023-03-06T15:12:01.422Z,52.80
2023-03-06T15:14:33.791Z,52.92
2023-03-06T15:17:18.572Z,53.93
2023-03-06T15:19:49.739Z,53.67
2023-03-06T15:22:29.647Z,53.93
2023-03-06T15:25:13.124Z,54.86
2023-03-06T15:27:41.099Z,54.69
2023-03-06T15:30:23.747Z,56.18
2023-03-06T15:32:51.731Z,56.54
2023-03-06T15:35:29.548Z,55.62
2023-03-06T15:37:57.902Z,56.47
2023-03-06T15:40:27.979Z,56.86
2023-03-06T15:42:56.334Z,56.78
2023-03-06T15:45:26.087Z,57.07
2023-03-06T15:47:55.601Z,57.17
2023-03-06T15:50:28.417Z,58.23
2023-03-06T15:52:56.414Z,58.95
2023-03-06T15:55:25.102Z,59.73
2023-03-06T15:57:58.232Z,59.07
2023-03-06T16:00:28.631Z,59.20
2023-03-06T16:02:57.241Z,59.93
2023-03-06T16:05:25.753Z,59.87
2023-03-06T16:07:53.660Z,60.87
2023-03-06T16:10:24.483Z,61.26
2023-03-06T16:13:16.563Z,62.24
2023-03-06T16:15:49.669Z,62.13
2023-03-06T16:18:17.882Z,62.50
2023-03-06T16:20:46.171Z,62.69
2023-03-06T16:23:13.883Z,63.49
2023-03-06T16:25:43.778Z,63.57
2023-03-06T16:28:13.246Z,63.86
2023-03-06T16:30:43.138Z,64.17
2023-03-06T16:33:12.445Z,64.08
2023-03-06T16:35:40.416Z,64.15
2023-03-06T16:38:09.785Z,64.42
2023-03-06T16:40:38.644Z,64.78
2023-03-06T16:43:07.575Z,65.15
2023-03-06T16:45:37.394Z,64.49
2023-03-06T16:48:06.015Z,65.08
2023-03-06T16:50:37.888Z,65.65
2023-03-06T16:53:06.843Z,66.37
2023-03-06T16:55:34.576Z,66.63
2023-03-06T16:58:02.553Z,66.09
2023-03-06T17:00:31.347Z,65.88
2023-03-06T17:03:00.479Z,66.06
2023-03-06T17:05:28.804Z,66.21
2023-03-06T17:07:56.983Z,66.04
2023-03-06T17:10:24.609Z,66.20
2023-03-06T17:12:55.668Z,66.00
2023-03-06T17:15:23.739Z,65.36
2023-03-06T17:17:51.416Z,65.03
2023-03-06T17:20:19.997Z,65.29
2023-03-06T17:22:47.966Z,65.12
2023-03-06T17:25:15.863Z,65.19
2023-03-06T17:27:43.571Z,64.42
2023-03-06T17:30:12.307Z,64.92
2023-03-06T17:32:40.074Z,64.83
2023-03-06T17:35:09.235Z,64.77
2023-03-06T17:37:37.211Z,64.91
2023-03-06T17:40:08.190Z,64.52
2023-03-06T17:42:35.989Z,64.63
2023-03-06T17:45:05.117Z,64.47
2023-03-06T17:47:32.971Z,65.11
2023-03-06T17:50:00.994Z,64.87
2023-03-06T17:52:29.594Z,65.26
2023-03-06T17:54:57.523Z,65.64
2023-03-06T17:57:25.379Z,66.10
2023-03-06T17:59:53.402Z,65.61
2023-03-06T18:02:21.289Z,65.89
2023-03-06T18:04:50.315Z,65.63
2023-03-06T18:07:18.313Z,65.71
2023-03-06T18:09:46.219Z,65.40
2023-03-06T18:12:14.609Z,65.95
2023-03-06T18:14:42.593Z,66.25
2023-03-06T18:17:10.177Z,66.53
2023-03-06T18:19:38.502Z,66.46
2023-03-06T18:22:06.113Z,66.10
2023-03-06T18:24:34.178Z,66.43
2023-03-06T18:27:02.858Z,66.91
2023-03-06T18:29:31.102Z,66.46
2023-03-06T18:31:59.066Z,67.05
2023-03-06T18:34:27.430Z,66.99
2023-03-06T18:36:55.335Z,66.67
2023-03-06T18:39:23.374Z,66.90
2023-03-06T18:41:51.627Z,66.59
2023-03-06T18:44:19.521Z,66.56
2023-03-06T18:46:47.420Z,66.23
2023-03-06T18:49:15.506Z,66.53
2023-03-06T18:51:43.410Z,66.56
2023-03-06T18:54:11.444Z,66.98
2023-03-06T18:56:39.633Z,66.99
2023-03-06T18:59:08.425Z,67.18
2023-03-06T19:01:36.625Z,67.64
2023-03-06T19:04:05.608Z,67.34
2023-03-06T19:06:33.561Z,67.15
2023-03-06T19:09:01.946Z,65.97
2023-03-06T19:11:31.636Z,66.33
2023-03-06T19:13:59.290Z,66.64
2023-03-06T19:16:28.922Z,66.80
2023-03-06T19:18:58.908Z,67.51
2023-03-06T19:21:28.234Z,66.26
2023-03-06T19:23:56.474Z,66.72
2023-03-06T19:26:25.644Z,67.84
2023-03-06T19:28:53.807Z,67.37
2023-03-06T19:31:26.856Z,66.98
2023-03-06T19:33:56.220Z,68.08
2023-03-06T19:36:28.808Z,68.38
2023-03-06T19:38:59.126Z,67.29
2023-03-06T19:41:27.513Z,68.44
2023-03-06T19:43:58.850Z,68.89
2023-03-06T19:46:27.111Z,70.04
2023-03-06T19:48:56.286Z,69.15
2023-03-06T19:51:25.099Z,70.48
2023-03-06T19:53:54.098Z,70.97
2023-03-06T19:56:27.948Z,70.25
2023-03-06T19:58:56.349Z,70.75
2023-03-06T20:01:26.164Z,70.76
2023-03-06T20:03:58.333Z,70.01
2023-03-06T20:06:27.886Z,70.06
2023-03-06T20:08:56.751Z,70.61
2023-03-06T20:11:28.682Z,72.01
2023-03-06T20:13:58.523Z,71.97
2023-03-06T20:16:27.079Z,71.09
2023-03-06T20:18:56.813Z,69.98
2023-03-06T20:21:29.444Z,70.43
2023-03-06T20:23:57.617Z,71.75
2023-03-06T20:26:27.258Z,71.48
2023-03-06T20:28:55.519Z,71.52
2023-03-06T20:31:26.196Z,71.94
2023-03-06T20:33:55.323Z,71.77
2023-03-06T20:36:34.199Z,71.27
2023-03-06T20:39:12.638Z,71.14
2023-03-06T20:41:41.125Z,71.26
2023-03-06T20:44:13.561Z,71.10
2023-03-06T20:46:41.981Z,71.63
2023-03-06T20:49:11.687Z,72.52
2023-03-06T20:51:40.363Z,71.76
2023-03-06T20:54:10.453Z,71.50
2023-03-06T20:56:39.358Z,72.35
2023-03-06T20:59:13.859Z,72.48
2023-03-06T21:01:45.489Z,71.93
2023-03-06T21:04:14.367Z,71.47
2023-03-06T21:06:43.788Z,72.04
2023-03-06T21:09:12.665Z,71.56
2023-03-06T21:11:40.678Z,71.65
2023-03-06T21:14:08.697Z,71.12
2023-03-06T21:16:36.744Z,72.37
2023-03-06T21:19:05.089Z,72.61
2023-03-06T21:21:34.763Z,71.52
2023-03-06T21:24:06.241Z,72.28
2023-03-06T21:26:34.520Z,73.51
2023-03-06T21:29:03.165Z,73.75
2023-03-06T21:31:31.202Z,73.22
2023-03-06T21:33:59.411Z,71.80
2023-03-06T21:36:27.739Z,72.05
2023-03-06T21:38:55.638Z,73.36
2023-03-06T21:41:26.366Z,73.43
2023-03-06T21:44:01.948Z,72.49
2023-03-06T21:46:30.450Z,72.60
2023-03-06T21:48:58.666Z,72.38
2023-03-06T21:51:26.767Z,73.44
2023-03-06T21:53:55.145Z,71.77
2023-03-06T21:56:24.733Z,71.23
2023-03-06T21:58:52.460Z,71.91
2023-03-06T22:01:23.842Z,72.71
2023-03-06T22:03:51.984Z,73.60
2023-03-06T22:06:22.147Z,73.79
2023-03-06T22:08:49.784Z,73.22
2023-03-06T22:11:19.585Z,73.38
2023-03-06T22:13:47.576Z,73.86
2023-03-06T22:16:15.970Z,75.30
2023-03-06T22:18:51.780Z,73.02
2023-03-06T22:21:21.368Z,72.97
2023-03-06T22:23:54.179Z,73.43
2023-03-06T22:26:21.815Z,73.33
2023-03-06T22:28:50.007Z,74.14
2023-03-06T22:31:20.615Z,73.75
2023-03-06T22:33:50.586Z,73.96
2023-03-06T22:36:19.073Z,74.97
2023-03-06T22:38:47.853Z,75.73
2023-03-06T22:41:17.171Z,74.81
2023-03-06T22:43:45.235Z,75.38
2023-03-06T22:46:14.945Z,75.29
2023-03-06T22:48:42.912Z,75.84
2023-03-06T22:51:13.355Z,76.11
2023-03-06T22:53:41.212Z,75.94
2023-03-06T22:56:11.324Z,75.94
2023-03-06T22:58:39.759Z,75.72
2023-03-06T23:01:08.514Z,75.58
2023-03-06T23:03:37.201Z,75.77
2023-03-06T23:06:13.338Z,76.28
2023-03-06T23:08:42.037Z,76.10
2023-03-06T23:11:15.478Z,75.45
2023-03-06T23:14:02.310Z,75.76
2023-03-06T23:16:48.374Z,74.76
2023-03-06T23:19:34.388Z,74.23
2023-03-06T23:22:20.453Z,74.97
2023-03-06T23:25:06.896Z,75.86
2023-03-06T23:27:35.857Z,74.78
2023-03-06T23:30:05.314Z,75.23
2023-03-06T23:32:33.587Z,74.93
2023-03-06T23:35:02.071Z,75.04
2023-03-06T23:37:31.116Z,73.54
2023-03-06T23:39:59.073Z,75.05
2023-03-06T23:42:26.929Z,74.12
2023-03-06T23:44:55.132Z,74.79
2023-03-06T23:47:23.154Z,75.34
2023-03-06T23:49:51.054Z,75.68
2023-03-06T23:52:18.791Z,75.95
2023-03-06T23:54:48.423Z,75.85
2023-03-06T23:57:16.449Z,76.12
2023-03-06T23:59:44.402Z,75.86
